Time;durP1;ratioP1;P1;durP2;ratioP2;P2;SDS_P1;SDS_P2;PMS_P1;PMS_P2;Temp;Humidity;BMP_temperature;BMP_pressure;BME280_temperature;BME280_humidity;BME280_pressure;Samples;Min_cycle;Max_cycle;Signal;HPM_P1;HPM_P2
2023/01/20 00:01:24;;;;;;;59.30;21.80;;;;;;;13.86;100.00;99462.83;108021;1256;73696;-63
2023/01/20 00:03:51;;;;;;;55.80;21.60;;;;;;;14.34;100.00;99461.96;108031;1257;62015;-65
2023/01/20 00:06:18;;;;;;;60.80;20.70;;;;;;;14.05;100.00;99459.02;108079;1254;59048;-64
2023/01/20 00:08:49;;;;;;;63.20;21.50;;;;;;;14.09;100.00;99458.95;108055;1254;73923;-64
2023/01/20 00:11:16;;;;;;;68.50;21.30;;;;;;;14.36;100.00;99457.06;108023;1257;71896;-63
2023/01/20 00:13:43;;;;;;;62.30;20.80;;;;;;;14.51;100.00;99463.59;108037;1254;72926;-63
2023/01/20 00:16:12;;;;;;;58.00;20.10;;;;;;;14.42;100.00;99461.80;108035;1255;63301;-63
2023/01/20 00:18:39;;;;;;;71.30;21.50;;;;;;;14.18;100.00;99467.56;108115;1255;61255;-64
2023/01/20 00:21:08;;;;;;;60.30;21.30;;;;;;;14.55;100.00;99464.54;108174;1254;74114;-62
2023/01/20 00:23:35;;;;;;;70.70;23.20;;;;;;;14.76;100.00;99459.14;108057;1256;71066;-63
2023/01/20 00:26:13;;;;;;;66.10;22.50;;;;;;;14.30;100.00;99465.56;108025;1258;74163;-64
2023/01/20 00:28:40;;;;;;;67.50;21.60;;;;;;;14.52;100.00;99460.86;108049;1256;62789;-64
2023/01/20 00:31:23;;;;;;;64.10;20.70;;;;;;;14.29;100.00;99457.36;108021;1254;61200;-63
2023/01/20 00:33:50;;;;;;;60.60;20.40;;;;;;;14.52;100.00;99459.41;108021;1256;73964;-63
2023/01/20 00:36:17;;;;;;;52.20;19.30;;;;;;;14.35;100.00;99464.53;108050;1259;70213;-63
2023/01/20 00:38:44;;;;;;;65.40;20.30;;;;;;;14.54;100.00;99468.48;108097;1257;73248;-62
2023/01/20 00:41:11;;;;;;;66.30;21.80;;;;;;;14.45;100.00;99471.48;108143;1255;63203;-62
2023/01/20 00:43:37;;;;;;;70.30;19.60;;;;;;;14.16;100.00;99474.55;108092;1254;59536;-62
2023/01/20 00:46:04;;;;;;;65.50;19.10;;;;;;;14.73;100.00;99473.84;108030;1254;74040;-63
2023/01/20 00:48:31;;;;;;;54.50;18.40;;;;;;;14.72;100.00;99468.73;108075;1254;71427;-62
2023/01/20 00:50:58;;;;;;;63.30;19.70;;;;;;;14.73;100.00;99465.13;108134;1254;72322;-64
2023/01/20 00:53:24;;;;;;;61.70;18.30;;;;;;;14.97;100.00;99462.70;107959;1254;62000;-59
2023/01/20 00:55:51;;;;;;;59.40;19.10;;;;;;;14.69;100.00;99465.09;108153;1254;61325;-63
2023/01/20 00:58:18;;;;;;;58.00;18.10;;;;;;;14.78;100.00;99465.35;108099;1260;73014;-63
2023/01/20 01:00:48;;;;;;;51.80;16.70;;;;;;;14.92;100.00;99458.44;108086;1257;71850;-62
2023/01/20 01:03:15;;;;;;;61.10;18.50;;;;;;;14.99;100.00;99461.04;107920;1256;73556;-62
2023/01/20 01:05:42;;;;;;;61.30;17.40;;;;;;;15.08;100.00;99466.05;107905;1255;61666;-64
2023/01/20 01:08:09;;;;;;;69.00;17.10;;;;;;;15.17;100.00;99468.27;107916;1256;61410;-64
2023/01/20 01:10:36;;;;;;;52.70;16.70;;;;;;;14.94;100.00;99468.55;107914;1259;74235;-60
2023/01/20 01:13:03;;;;;;;55.80;15.80;;;;;;;15.06;100.00;99469.21;107960;1256;70555;-61
2023/01/20 01:15:30;;;;;;;54.10;16.70;;;;;;;15.23;100.00;99467.20;107930;1257;70713;-63
2023/01/20 01:17:57;;;;;;;48.00;15.50;;;;;;;15.25;100.00;99468.63;107883;1256;63327;-60
2023/01/20 01:20:24;;;;;;;52.30;16.20;;;;;;;15.08;100.00;99463.38;107951;1256;59579;-61
2023/01/20 01:22:50;;;;;;;61.40;13.00;;;;;;;14.51;100.00;99453.95;107968;1256;72196;-62
2023/01/20 01:25:17;;;;;;;42.90;14.40;;;;;;;14.51;100.00;99451.31;107965;1256;71797;-62
2023/01/20 01:27:43;;;;;;;55.60;15.30;;;;;;;14.91;100.00;99446.67;107934;1256;73686;-60
2023/01/20 01:30:11;;;;;;;43.00;15.10;;;;;;;14.99;100.00;99449.48;107872;1257;62990;-63
2023/01/20 01:32:38;;;;;;;59.70;16.40;;;;;;;14.86;100.00;99449.66;107967;1255;59602;-63
2023/01/20 01:35:05;;;;;;;39.90;13.80;;;;;;;14.75;100.00;99448.05;107852;1256;73702;-63
2023/01/20 01:37:32;;;;;;;41.00;13.30;;;;;;;14.72;100.00;99445.42;107932;1256;69481;-62
2023/01/20 01:39:59;;;;;;;41.40;12.90;;;;;;;14.35;100.00;99446.70;107909;1257;72028;-64
2023/01/20 01:42:25;;;;;;;32.10;14.00;;;;;;;13.93;100.00;99451.09;107889;1257;61784;-63
2023/01/20 01:45:10;;;;;;;37.00;12.70;;;;;;;13.97;100.00;99454.04;107875;1257;59967;-62
2023/01/20 01:48:06;;;;;;;50.20;13.60;;;;;;;13.98;100.00;99452.91;107931;1254;72428;-63
2023/01/20 01:50:55;;;;;;;49.90;13.30;;;;;;;14.06;100.00;99457.35;108081;1254;69435;-62
2023/01/20 01:53:22;;;;;;;44.60;13.20;;;;;;;14.10;100.00;99456.95;107952;1254;73125;-61
2023/01/20 01:55:51;;;;;;;47.20;12.40;;;;;;;13.73;100.00;99458.66;107964;1254;61631;-60
2023/01/20 01:58:21;;;;;;;44.80;12.20;;;;;;;13.27;100.00;99464.41;108059;1254;60139;-58
2023/01/20 02:00:48;;;;;;;37.40;11.70;;;;;;;13.35;100.00;99472.02;107983;1257;72879;-59
2023/01/20 02:03:14;;;;;;;49.90;13.60;;;;;;;13.49;100.00;99473.01;107934;1256;71319;-61
2023/01/20 02:05:41;;;;;;;44.80;12.10;;;;;;;13.41;100.00;99473.98;107801;1256;71930;-61
2023/01/20 02:08:08;;;;;;;44.10;11.00;;;;;;;13.36;100.00;99475.36;107857;1255;61996;-64
2023/01/20 02:10:34;;;;;;;50.10;13.70;;;;;;;13.39;100.00;99472.70;107946;1257;61280;-63
2023/01/20 02:13:01;;;;;;;51.30;13.30;;;;;;;13.60;100.00;99471.64;107961;1257;73814;-62
2023/01/20 02:15:39;;;;;;;48.20;12.20;;;;;;;13.56;100.00;99476.80;107939;1256;69949;-62
2023/01/20 02:18:15;;;;;;;37.60;12.70;;;;;;;13.61;100.00;99479.30;108050;1257;73704;-63
2023/01/20 02:21:26;;;;;;;44.70;12.70;;;;;;;13.75;100.00;99480.39;107968;1255;62189;-61
2023/01/20 02:24:17;;;;;;;31.30;10.90;;;;;;;13.45;100.00;99481.33;107329;1263;61003;-63
2023/01/20 02:27:18;;;;;;;36.90;12.80;;;;;;;13.61;100.00;99482.66;107322;1264;73989;-61
2023/01/20 02:30:10;;;;;;;49.80;13.70;;;;;;;13.46;100.00;99486.88;107908;1257;71420;-61
2023/01/20 02:32:48;;;;;;;34.30;12.30;;;;;;;13.95;100.00;99477.28;107743;1257;73808;-63
2023/01/20 02:35:23;;;;;;;42.20;12.70;;;;;;;13.86;100.00;99478.73;107932;1257;60486;-61
2023/01/20 02:38:14;;;;;;;37.60;11.50;;;;;;;13.08;100.00;99481.73;107944;1257;61580;-60
2023/01/20 02:41:19;;;;;;;40.80;11.20;;;;;;;12.72;100.00;99486.89;107953;1257;74892;-60
2023/01/20 02:43:50;;;;;;;29.30;9.90;;;;;;;13.08;100.00;99485.21;107646;1257;69830;-60
2023/01/20 02:46:32;;;;;;;33.40;11.80;;;;;;;13.15;100.00;99484.50;107934;1257;73665;-62
2023/01/20 02:49:04;;;;;;;38.10;11.80;;;;;;;13.17;100.00;99489.27;108025;1254;62398;-62
2023/01/20 02:51:36;;;;;;;33.90;10.80;;;;;;;13.10;100.00;99496.42;108066;1254;61285;-62
2023/01/20 02:54:05;;;;;;;44.30;12.60;;;;;;;12.70;100.00;99503.05;108073;1255;73959;-62
2023/01/20 02:56:32;;;;;;;30.80;10.50;;;;;;;12.57;100.00;99507.66;107950;1259;71278;-62
2023/01/20 02:59:13;;;;;;;43.30;12.20;;;;;;;12.42;100.00;99516.23;107917;1254;72670;-62
2023/01/20 03:01:47;;;;;;;44.10;12.80;;;;;;;12.25;100.00;99520.12;107993;1257;61723;-63
2023/01/20 03:04:15;;;;;;;35.30;10.90;;;;;;;12.35;100.00;99516.61;107935;1257;59632;-63
2023/01/20 03:06:46;;;;;;;37.40;11.80;;;;;;;12.80;100.00;99511.84;107938;1259;75094;-63
2023/01/20 03:09:16;;;;;;;35.50;11.20;;;;;;;12.26;100.00;99517.09;107820;1257;68379;-62
2023/01/20 03:11:49;;;;;;;36.90;11.40;;;;;;;12.20;100.00;99514.93;107943;1259;74122;-62
2023/01/20 03:14:16;;;;;;;42.60;12.20;;;;;;;12.52;100.00;99514.08;107755;1256;61339;-63
2023/01/20 03:16:42;;;;;;;32.10;11.50;;;;;;;12.62;100.00;99516.04;107916;1257;61085;-62
2023/01/20 03:19:09;;;;;;;51.30;12.00;;;;;;;12.59;100.00;99514.21;108016;1259;74631;-63
2023/01/20 03:21:36;;;;;;;37.00;11.80;;;;;;;12.67;100.00;99509.19;107962;1257;71558;-63
2023/01/20 03:24:03;;;;;;;34.30;11.50;;;;;;;12.66;100.00;99510.34;107915;1259;72516;-64
2023/01/20 03:26:30;;;;;;;48.50;11.50;;;;;;;13.00;100.00;99517.21;107971;1257;60911;-64
2023/01/20 03:28:57;;;;;;;36.50;10.30;;;;;;;13.27;100.00;99522.20;107923;1256;60269;-60
2023/01/20 03:31:40;;;;;;;42.40;12.60;;;;;;;12.82;100.00;99524.55;107929;1257;74879;-62
2023/01/20 03:34:09;;;;;;;38.60;11.70;;;;;;;13.31;100.00;99536.29;107915;1259;70433;-63
2023/01/20 03:36:36;;;;;;;39.00;11.60;;;;;;;13.61;100.00;99537.16;107792;1257;73750;-61
2023/01/20 03:39:03;;;;;;;49.00;12.90;;;;;;;13.59;100.00;99535.90;107817;1257;61285;-63
2023/01/20 03:41:35;;;;;;;35.40;12.30;;;;;;;13.83;100.00;99536.21;107970;1256;61420;-62
2023/01/20 03:44:10;;;;;;;35.00;12.10;;;;;;;13.83;100.00;99541.35;107954;1257;75032;-65
2023/01/20 03:46:48;;;;;;;41.80;13.50;;;;;;;13.98;100.00;99547.14;107954;1257;71258;-63
2023/01/20 03:49:55;;;;;;;30.60;11.20;;;;;;;13.81;100.00;99551.20;108139;1259;73466;-63
2023/01/20 03:52:53;;;;;;;52.80;11.80;;;;;;;13.44;100.00;99556.85;108126;1254;62559;-62
2023/01/20 03:55:28;;;;;;;41.20;13.10;;;;;;;13.36;100.00;99562.95;108112;1255;60418;-62
2023/01/20 03:58:02;;;;;;;37.20;12.40;;;;;;;13.62;100.00;99564.64;108157;1255;72149;-63
2023/01/20 04:00:30;;;;;;;36.30;11.70;;;;;;;13.44;100.00;99567.95;107951;1254;71608;-63
2023/01/20 04:02:59;;;;;;;50.50;13.30;;;;;;;13.61;100.00;99559.78;108094;1254;73707;-64
2023/01/20 04:05:25;;;;;;;29.10;11.20;;;;;;;13.89;100.00;99556.48;108140;1259;61144;-63
2023/01/20 04:07:52;;;;;;;39.40;12.90;;;;;;;13.78;100.00;99561.80;108125;1258;61093;-62
2023/01/20 04:10:18;;;;;;;43.40;13.40;;;;;;;13.62;100.00;99564.98;107821;1254;73908;-63
2023/01/20 04:12:45;;;;;;;33.50;13.30;;;;;;;13.48;100.00;99571.30;107892;1253;70437;-61
2023/01/20 04:15:12;;;;;;;35.90;12.40;;;;;;;13.65;100.00;99567.80;107997;1255;73779;-62
2023/01/20 04:17:39;;;;;;;32.50;12.30;;;;;;;13.60;100.00;99571.81;107976;1254;60477;-62
2023/01/20 04:20:09;;;;;;;32.70;12.40;;;;;;;13.58;100.00;99578.30;107964;1254;60436;-62
2023/01/20 04:22:41;;;;;;;35.60;12.30;;;;;;;13.72;100.00;99572.89;108012;1260;74818;-62
2023/01/20 04:25:16;;;;;;;40.90;14.40;;;;;;;13.68;100.00;99572.42;108113;1259;68592;-62
2023/01/20 04:27:43;;;;;;;35.80;12.50;;;;;;;13.70;100.00;99576.73;108153;1254;73646;-63
2023/01/20 04:30:11;;;;;;;27.20;12.20;;;;;;;13.55;100.00;99581.77;108068;1254;60296;-62
2023/01/20 04:32:38;;;;;;;36.60;13.20;;;;;;;13.17;100.00;99593.98;108133;1254;61730;-61
2023/01/20 04:35:05;;;;;;;42.50;14.60;;;;;;;13.40;100.00;99598.00;108130;1255;74164;-63
2023/01/20 04:37:32;;;;;;;36.30;12.40;;;;;;;13.56;100.00;99601.69;108058;1258;68410;-63
2023/01/20 04:39:59;;;;;;;33.70;11.70;;;;;;;13.47;100.00;99602.72;108103;1254;72927;-63
2023/01/20 04:42:25;;;;;;;36.50;11.40;;;;;;;13.17;100.00;99607.91;108063;1260;62156;-63
2023/01/20 04:44:52;;;;;;;31.30;11.20;;;;;;;12.96;100.00;99617.86;108088;1255;60439;-64
2023/01/20 04:47:19;;;;;;;34.60;12.10;;;;;;;12.84;100.00;99624.87;108029;1254;74608;-63
2023/01/20 04:49:45;;;;;;;35.70;12.40;;;;;;;12.81;100.00;99630.36;107987;1258;71663;-62
2023/01/20 04:52:12;;;;;;;35.70;13.10;;;;;;;12.15;100.00;99635.89;107952;1259;73865;-62
2023/01/20 04:54:38;;;;;;;45.50;13.60;;;;;;;12.43;100.00;99633.36;107988;1254;62441;-63
2023/01/20 04:57:05;;;;;;;31.70;12.00;;;;;;;12.73;100.00;99625.98;108027;1255;60380;-62
2023/01/20 04:59:32;;;;;;;38.20;13.00;;;;;;;12.59;100.00;99623.77;107989;1257;73649;-63
2023/01/20 05:01:58;;;;;;;31.30;12.00;;;;;;;12.57;100.00;99626.67;108043;1254;70445;-63
2023/01/20 05:04:25;;;;;;;29.70;11.60;;;;;;;12.45;100.00;99635.59;108027;1254;72855;-64
2023/01/20 05:06:52;;;;;;;38.20;14.30;;;;;;;12.46;100.00;99633.23;108034;1253;62180;-64
2023/01/20 05:09:19;;;;;;;33.80;13.30;;;;;;;12.69;100.00;99630.77;108024;1258;60795;-61
2023/01/20 05:11:45;;;;;;;39.40;14.20;;;;;;;12.55;100.00;99631.75;108038;1255;75444;-62
2023/01/20 05:14:12;;;;;;;34.90;13.20;;;;;;;12.68;100.00;99635.64;108012;1254;70821;-64
2023/01/20 05:16:39;;;;;;;28.40;12.10;;;;;;;12.51;100.00;99643.58;108020;1254;72560;-63
2023/01/20 05:19:05;;;;;;;40.80;15.10;;;;;;;12.55;100.00;99650.38;108031;1257;62183;-62
2023/01/20 05:21:33;;;;;;;38.50;13.60;;;;;;;12.47;100.00;99652.04;108086;1255;60171;-59
2023/01/20 05:23:59;;;;;;;38.40;13.40;;;;;;;12.26;100.00;99658.77;108114;1258;74878;-64
2023/01/20 05:26:26;;;;;;;38.80;14.30;;;;;;;12.09;100.00;99665.23;108056;1254;71354;-64
2023/01/20 05:28:53;;;;;;;36.70;12.70;;;;;;;12.45;100.00;99659.90;107986;1255;74319;-64
2023/01/20 05:31:19;;;;;;;36.00;14.40;;;;;;;12.42;100.00;99661.10;108018;1254;62249;-62
2023/01/20 05:33:46;;;;;;;33.20;13.00;;;;;;;12.33;100.00;99668.63;107934;1254;61082;-65
2023/01/20 05:36:13;;;;;;;36.00;12.80;;;;;;;12.37;100.00;99666.30;108058;1257;75009;-65
2023/01/20 05:38:39;;;;;;;34.20;14.00;;;;;;;12.53;100.00;99665.46;108053;1254;71535;-64
2023/01/20 05:41:07;;;;;;;35.80;14.00;;;;;;;12.39;100.00;99670.56;108109;1257;73854;-65
2023/01/20 05:43:34;;;;;;;39.40;14.10;;;;;;;12.21;100.00;99673.80;108176;1254;61347;-66
2023/01/20 05:46:01;;;;;;;43.40;13.90;;;;;;;12.44;100.00;99676.86;108096;1254;60228;-64
2023/01/20 05:48:28;;;;;;;34.10;13.30;;;;;;;12.50;100.00;99679.31;108184;1254;72838;-63
2023/01/20 05:50:54;;;;;;;46.10;13.90;;;;;;;12.35;100.00;99679.42;108223;1254;71339;-64
2023/01/20 05:53:21;;;;;;;44.90;15.00;;;;;;;12.37;100.00;99681.05;108256;1254;73947;-63
2023/01/20 05:55:48;;;;;;;34.90;13.20;;;;;;;12.23;100.00;99686.89;108189;1253;61303;-64
2023/01/20 05:58:14;;;;;;;37.40;14.20;;;;;;;12.20;100.00;99690.04;108238;1256;62405;-65
2023/01/20 06:00:41;;;;;;;43.50;14.50;;;;;;;12.24;100.00;99688.25;108208;1254;75050;-63
2023/01/20 06:03:07;;;;;;;38.30;14.40;;;;;;;12.16;100.00;99690.74;108187;1253;70873;-63
2023/01/20 06:05:34;;;;;;;41.30;13.50;;;;;;;12.29;100.00;99689.57;108199;1254;74180;-65
2023/01/20 06:08:01;;;;;;;30.70;13.10;;;;;;;12.35;100.00;99690.32;108216;1254;62189;-65
2023/01/20 06:10:27;;;;;;;47.60;13.90;;;;;;;12.40;100.00;99693.59;108153;1254;61362;-63
2023/01/20 06:12:54;;;;;;;41.60;14.00;;;;;;;12.31;100.00;99687.33;108318;1254;73859;-63
2023/01/20 06:15:24;;;;;;;30.50;11.30;;;;;;;12.31;100.00;99695.83;108261;1257;70448;-62
2023/01/20 06:17:51;;;;;;;37.60;13.50;;;;;;;12.20;100.00;99698.99;108257;1255;73851;-63
2023/01/20 06:20:17;;;;;;;46.90;14.60;;;;;;;12.15;100.00;99700.14;108185;1254;62158;-62
2023/01/20 06:22:44;;;;;;;47.30;17.10;;;;;;;12.59;100.00;99698.95;108220;1254;61471;-62
2023/01/20 06:25:11;;;;;;;37.80;16.80;;;;;;;12.57;100.00;99708.57;108204;1254;75110;-64
2023/01/20 06:27:37;;;;;;;32.50;15.00;;;;;;;12.30;100.00;99714.54;108195;1254;71053;-64
2023/01/20 06:30:05;;;;;;;43.50;17.70;;;;;;;12.76;100.00;99711.11;108174;1253;72162;-62
2023/01/20 06:32:31;;;;;;;38.30;17.00;;;;;;;12.06;100.00;99717.13;108192;1253;61333;-63
2023/01/20 06:34:58;;;;;;;41.30;18.10;;;;;;;12.05;100.00;99728.09;108165;1254;61563;-64
2023/01/20 06:37:25;;;;;;;30.70;15.90;;;;;;;12.17;100.00;99729.44;108209;1253;73858;-64
2023/01/20 06:39:51;;;;;;;40.90;17.20;;;;;;;12.13;100.00;99728.55;108267;1256;71133;-64
2023/01/20 06:42:18;;;;;;;34.20;15.30;;;;;;;12.17;100.00;99733.84;108211;1254;73699;-64
2023/01/20 06:44:45;;;;;;;32.30;15.10;;;;;;;12.13;100.00;99741.40;108111;1260;62502;-64
2023/01/20 06:47:11;;;;;;;41.10;16.00;;;;;;;12.21;100.00;99740.52;108204;1254;61892;-64
2023/01/20 06:49:38;;;;;;;36.10;16.00;;;;;;;11.99;100.00;99729.63;108056;1254;73356;-64
2023/01/20 06:52:05;;;;;;;27.90;13.50;;;;;;;11.95;100.00;99728.25;108040;1255;60376;-61
2023/01/20 06:54:32;;;;;;;30.50;15.20;;;;;;;12.14;100.00;99738.91;108037;1254;73944;-62
2023/01/20 06:56:58;;;;;;;33.60;14.00;;;;;;;12.77;100.00;99741.52;107996;1254;60994;-63
2023/01/20 06:59:25;;;;;;;32.60;15.20;;;;;;;12.78;100.00;99741.48;108046;1254;60390;-65
2023/01/20 07:01:52;;;;;;;31.00;13.50;;;;;;;12.48;100.00;99740.73;108095;1254;74178;-66
2023/01/20 07:04:18;;;;;;;30.30;12.00;;;;;;;12.73;100.00;99742.80;108062;1254;71342;-65
2023/01/20 07:06:45;;;;;;;41.80;13.20;;;;;;;12.74;100.00;99749.09;108080;1254;73368;-64
2023/01/20 07:09:12;;;;;;;32.00;12.00;;;;;;;12.55;100.00;99755.33;108015;1254;63309;-65
2023/01/20 07:11:38;;;;;;;27.60;11.60;;;;;;;11.72;100.00;99767.48;108021;1254;61398;-66
2023/01/20 07:14:05;;;;;;;31.40;12.40;;;;;;;11.81;100.00;99773.39;108032;1254;74480;-65
2023/01/20 07:16:33;;;;;;;21.10;9.80;;;;;;;11.85;100.00;99772.16;108048;1254;71590;-64
2023/01/20 07:18:59;;;;;;;29.40;11.80;;;;;;;11.94;100.00;99767.51;108026;1254;73628;-65
2023/01/20 07:21:26;;;;;;;31.00;12.10;;;;;;;12.33;100.00;99764.03;108069;1254;61467;-65
2023/01/20 07:23:53;;;;;;;45.60;12.30;;;;;;;11.89;100.00;99767.39;108073;1254;60415;-65
2023/01/20 07:26:21;;;;;;;28.60;12.30;;;;;;;11.52;100.00;99763.67;107991;1254;74895;-65
2023/01/20 07:28:47;;;;;;;32.90;12.40;;;;;;;11.50;100.00;99760.23;107931;1260;68757;-64
2023/01/20 07:31:20;;;;;;;29.80;13.10;;;;;;;11.52;100.00;99763.86;108077;1254;72152;-65
2023/01/20 07:33:47;;;;;;;36.50;12.60;;;;;;;11.61;100.00;99770.12;108038;1253;62295;-62
2023/01/20 07:36:14;;;;;;;27.60;11.10;;;;;;;11.70;100.00;99775.13;108030;1254;60764;-63
2023/01/20 07:38:41;;;;;;;32.40;12.80;;;;;;;11.68;100.00;99782.30;107775;1254;72755;-61
2023/01/20 07:41:10;;;;;;;32.40;11.80;;;;;;;11.91;100.00;99785.05;108038;1254;70543;-63
2023/01/20 07:43:37;;;;;;;30.10;11.40;;;;;;;12.01;100.00;99780.73;107985;1259;72852;-62
2023/01/20 07:46:04;;;;;;;27.80;10.90;;;;;;;12.06;100.00;99774.15;107974;1254;61416;-65
2023/01/20 07:48:31;;;;;;;25.10;10.70;;;;;;;12.05;100.00;99765.91;108135;1254;61297;-63
2023/01/20 07:51:04;;;;;;;32.40;12.00;;;;;;;12.07;100.00;99769.20;108223;1256;75079;-65
2023/01/20 07:53:35;;;;;;;26.80;12.30;;;;;;;12.34;100.00;99770.84;108153;1254;70564;-64
2023/01/20 07:56:03;;;;;;;31.70;11.40;;;;;;;12.28;100.00;99774.67;108062;1255;71365;-62
2023/01/20 07:58:30;;;;;;;36.90;13.30;;;;;;;12.09;100.00;99778.04;108089;1254;61582;-65
2023/01/20 08:00:56;;;;;;;26.20;11.90;;;;;;;12.15;100.00;99784.78;108059;1254;61571;-62
2023/01/20 08:03:24;;;;;;;25.70;10.90;;;;;;;12.52;100.00;99781.02;107960;1254;74054;-64
2023/01/20 08:05:53;;;;;;;37.10;12.70;;;;;;;11.94;100.00;99785.09;108107;1254;68435;-63
2023/01/20 08:08:20;;;;;;;27.00;10.60;;;;;;;11.96;100.00;99792.38;108079;1254;71835;-67
2023/01/20 08:10:52;;;;;;;34.50;13.50;;;;;;;11.85;100.00;99794.65;108068;1257;61207;-64
2023/01/20 08:13:22;;;;;;;26.20;11.80;;;;;;;12.43;100.00;99801.02;108071;1254;60438;-64
2023/01/20 08:15:49;;;;;;;35.60;12.80;;;;;;;12.51;100.00;99794.98;108084;1254;75099;-64
2023/01/20 08:18:15;;;;;;;37.50;12.30;;;;;;;12.34;100.00;99805.13;108096;1254;70014;-64
2023/01/20 08:20:42;;;;;;;33.30;13.10;;;;;;;12.42;100.00;99799.31;108061;1254;73776;-63
2023/01/20 08:36:28;;;;;;;33.80;11.80;;;;;;;12.50;100.00;99794.15;105676;1282;613196;-63
2023/01/20 08:38:56;;;;;;;29.30;10.30;;;;;;;13.58;100.00;99795.20;107118;1264;122940;-64
2023/01/20 08:41:25;;;;;;;31.80;11.50;;;;;;;13.68;100.00;99799.79;107368;1264;62042;-64
2023/01/20 08:43:52;;;;;;;28.20;11.20;;;;;;;13.58;100.00;99800.34;107358;1264;71570;-65
2023/01/20 08:46:20;;;;;;;35.90;11.60;;;;;;;13.63;100.00;99796.20;107283;1266;71033;-65
2023/01/20 08:48:47;;;;;;;25.10;10.90;;;;;;;14.01;100.00;99793.02;107300;1269;74664;-64
2023/01/20 08:51:20;;;;;;;32.10;10.80;;;;;;;13.95;100.00;99795.48;107285;1266;63052;-65
2023/01/20 08:53:47;;;;;;;24.80;9.90;;;;;;;13.83;100.00;99790.84;107261;1266;62458;-63
2023/01/20 08:56:14;;;;;;;27.20;10.20;;;;;;;13.93;100.00;99795.06;107267;1266;74199;-64
2023/01/20 08:58:41;;;;;;;35.90;11.90;;;;;;;13.80;100.00;99798.45;107340;1266;72574;-64
2023/01/20 09:01:12;;;;;;;23.60;9.80;;;;;;;13.55;100.00;99802.97;107309;1266;74801;-65
2023/01/20 09:03:39;;;;;;;30.50;10.40;;;;;;;13.55;100.00;99800.67;107308;1266;63179;-63
2023/01/20 09:06:09;;;;;;;32.00;11.40;;;;;;;13.55;100.00;99799.62;107315;1266;62070;-62
2023/01/20 09:08:37;;;;;;;32.90;12.10;;;;;;;13.44;100.00;99800.57;107333;1266;75128;-63
2023/01/20 09:11:05;;;;;;;36.30;12.50;;;;;;;13.63;100.00;99794.60;107714;1257;71162;-63
2023/01/20 09:13:32;;;;;;;30.50;10.40;;;;;;;13.74;100.00;99790.09;107791;1257;74726;-64
2023/01/20 09:15:59;;;;;;;31.00;11.00;;;;;;;14.03;100.00;99796.59;107684;1257;64123;-63
2023/01/20 09:18:26;;;;;;;34.60;11.10;;;;;;;13.94;100.00;99789.02;107692;1256;62473;-65
2023/01/20 09:20:53;;;;;;;29.00;10.40;;;;;;;14.12;100.00;99787.08;107653;1257;75324;-64
2023/01/20 09:23:20;;;;;;;31.20;11.00;;;;;;;13.78;100.00;99786.71;107674;1262;71092;-64
2023/01/20 09:25:47;;;;;;;23.90;11.00;;;;;;;14.02;100.00;99781.83;107637;1258;74677;-63
2023/01/20 09:28:13;;;;;;;30.90;10.60;;;;;;;14.08;100.00;99788.38;107694;1259;61884;-64
2023/01/20 09:30:41;;;;;;;28.10;10.70;;;;;;;14.34;100.00;99790.03;107641;1259;62663;-64
2023/01/20 09:33:10;;;;;;;29.10;11.30;;;;;;;14.76;100.00;99786.21;107630;1258;74341;-64
2023/01/20 09:35:36;;;;;;;24.40;11.40;;;;;;;14.37;100.00;99787.98;107684;1260;72263;-61
2023/01/20 13:44:35;;;;;;;28.90;13.50;;;;;;;10.57;100.00;99882.29;105094;1292;603241;-90
2023/01/20 13:47:02;;;;;;;27.60;13.60;;;;;;;12.58;100.00;99881.09;107857;1266;62456;-91
2023/01/20 13:49:42;;;;;;;31.70;14.00;;;;;;;12.97;100.00;99883.87;107511;1267;60947;-92
2023/01/20 13:52:11;;;;;;;22.80;12.50;;;;;;;13.44;100.00;99881.48;107515;1266;73129;-91
2023/01/20 13:54:41;;;;;;;35.00;13.70;;;;;;;13.77;100.00;99879.73;107486;1269;70296;-91
2023/01/20 13:57:19;;;;;;;26.10;13.10;;;;;;;13.91;100.00;99880.96;107299;1264;195816;-91
2023/01/20 13:59:46;;;;;;;29.60;13.10;;;;;;;13.60;100.00;99877.85;107638;1263;60089;-91
2023/01/20 14:02:20;;;;;;;22.80;12.70;;;;;;;13.87;100.00;99885.03;107918;1257;59198;-90
2023/01/20 14:04:49;;;;;;;22.00;12.60;;;;;;;14.14;100.00;99885.46;108007;1257;73203;-91
2023/01/20 14:07:26;;;;;;;20.50;11.60;;;;;;;14.43;100.00;99890.77;108389;1256;69281;-91
2023/01/20 14:09:57;;;;;;;26.80;13.40;;;;;;;14.54;100.00;99890.52;108557;1260;73558;-91
2023/01/20 14:12:27;;;;;;;28.10;13.30;;;;;;;14.64;100.00;99891.88;108867;1254;60937;-91
2023/01/20 14:14:57;;;;;;;29.10;14.10;;;;;;;14.93;96.27;99893.19;109171;1254;59067;-88
2023/01/20 14:17:57;;;;;;;26.30;12.30;;;;;;;14.88;94.07;99894.94;109499;1255;71726;-91
2023/01/20 14:20:27;;;;;;;28.60;13.30;;;;;;;14.58;93.60;99895.58;109101;1260;70303;-90
2023/01/20 14:22:55;;;;;;;24.40;13.50;;;;;;;14.70;92.95;99896.62;108245;1254;73632;-91
2023/01/20 14:25:24;;;;;;;18.80;11.40;;;;;;;14.87;91.57;99894.63;108057;1254;62269;-90
2023/01/20 14:27:51;;;;;;;25.00;13.60;;;;;;;14.78;91.58;99897.92;108253;1254;59904;-90
2023/01/20 14:30:25;;;;;;;25.50;14.80;;;;;;;14.67;91.55;99896.50;108137;1260;73137;-91
2023/01/20 14:32:53;;;;;;;27.30;15.50;;;;;;;14.49;92.10;99893.25;108262;1254;70187;-89
2023/01/20 14:35:30;;;;;;;28.20;15.40;;;;;;;14.45;92.38;99896.45;108161;1260;72540;-90
2023/01/20 14:37:58;;;;;;;29.20;14.60;;;;;;;14.53;91.86;99897.45;108350;1254;61359;-90
2023/01/20 14:40:31;;;;;;;30.90;14.80;;;;;;;14.33;92.50;99897.86;108168;1257;60254;-91
2023/01/20 14:43:29;;;;;;;29.60;16.10;;;;;;;14.11;93.20;99897.33;108422;1254;73121;-89
2023/01/20 14:45:56;;;;;;;31.90;15.80;;;;;;;14.18;88.12;99897.60;108703;1254;70686;-90
2023/01/20 14:48:23;;;;;;;31.40;15.80;;;;;;;13.95;79.22;99901.02;108768;1257;71857;-89
2023/01/20 14:51:03;;;;;;;38.60;17.30;;;;;;;13.68;80.37;99906.89;108893;1254;60974;-89
2023/01/20 14:53:29;;;;;;;30.30;15.50;;;;;;;13.42;80.59;99909.99;109357;1257;58969;-90
2023/01/20 14:56:01;;;;;;;35.10;18.50;;;;;;;13.85;78.68;99908.60;109434;1254;72219;-89
2023/01/20 14:58:32;;;;;;;37.90;19.00;;;;;;;13.26;80.93;99911.71;108333;1254;71749;-91
2023/01/20 15:01:02;;;;;;;40.70;21.70;;;;;;;13.24;81.18;99908.48;108293;1259;72833;-91
2023/01/20 15:03:29;;;;;;;35.30;18.40;;;;;;;13.22;80.87;99910.34;108461;1254;60588;-91
2023/01/20 15:06:09;;;;;;;50.20;24.80;;;;;;;13.20;81.06;99916.27;108577;1254;59602;-90
2023/01/20 15:08:36;;;;;;;31.70;16.10;;;;;;;13.15;80.75;99921.63;108550;1254;73430;-92
2023/01/20 15:11:35;;;;;;;47.80;22.70;;;;;;;13.39;79.53;99922.52;108601;1254;70598;-90
2023/01/20 15:14:08;;;;;;;42.10;21.00;;;;;;;13.29;79.51;99923.19;108112;1254;72976;-91
2023/01/20 15:16:37;;;;;;;34.00;17.90;;;;;;;13.31;79.30;99919.89;108224;1254;61032;-92
2023/01/20 15:19:21;;;;;;;27.70;15.70;;;;;;;13.14;79.27;99918.30;108197;1257;60136;-91
2023/01/20 15:21:50;;;;;;;26.30;16.10;;;;;;;13.09;79.64;99925.05;108327;1254;73068;-89
2023/01/20 15:24:17;;;;;;;30.00;16.00;;;;;;;13.16;78.72;99922.42;108407;1254;71331;-91
2023/01/20 15:26:46;;;;;;;32.20;16.60;;;;;;;13.42;77.26;99917.79;108578;1254;72513;-91
2023/01/20 15:29:25;;;;;;;29.10;16.40;;;;;;;13.42;76.82;99915.65;108593;1254;60968;-91
2023/01/20 15:31:53;;;;;;;33.50;18.50;;;;;;;13.73;75.51;99908.73;108582;1252;60201;-91
2023/01/20 15:34:24;;;;;;;30.10;16.60;;;;;;;13.76;74.83;99905.40;108604;1254;72891;-91